Time;durP1;ratioP1;P1;durP2;ratioP2;P2;SDS_P1;SDS_P2;PMS_P1;PMS_P2;Temp;Humidity;BMP_temperature;BMP_pressure;BME280_temperature;BME280_humidity;BME280_pressure;Samples;Min_cycle;Max_cycle;Signal;HPM_P1;HPM_P2
2022/03/27 00:00:15;;;;;;;9.40;6.17;;;10.10;99.90;;;;;;5102688;28;20488;-83
2022/03/27 00:02:44;;;;;;;9.60;6.03;;;10.10;99.90;;;;;;5102611;28;20473;-83
2022/03/27 00:05:12;;;;;;;8.37;5.67;;;10.10;99.90;;;;;;5101414;28;20452;-83
2022/03/27 00:07:39;;;;;;;9.40;5.23;;;10.10;99.90;;;;;;5103204;28;20542;-83
2022/03/27 00:10:07;;;;;;;7.70;5.53;;;10.20;99.90;;;;;;5103576;28;21097;-83
2022/03/27 00:12:34;;;;;;;7.30;4.43;;;10.20;99.90;;;;;;5102358;28;20521;-83
2022/03/27 00:15:02;;;;;;;6.40;5.13;;;10.20;99.90;;;;;;5101070;28;20478;-82
2022/03/27 00:17:32;;;;;;;9.47;4.87;;;10.20;99.90;;;;;;5097336;28;20462;-84
2022/03/27 00:20:01;;;;;;;5.87;4.23;;;10.30;99.90;;;;;;5108376;28;20471;-84
2022/03/27 00:22:28;;;;;;;6.47;4.40;;;10.30;99.90;;;;;;5100429;28;20467;-82
2022/03/27 00:24:56;;;;;;;6.63;4.40;;;10.30;99.90;;;;;;5099900;28;20534;-82
2022/03/27 00:27:23;;;;;;;6.60;4.60;;;10.30;99.90;;;;;;5099118;28;20447;-84
2022/03/27 00:29:50;;;;;;;7.43;5.13;;;10.30;99.90;;;;;;5098767;28;21013;-84
2022/03/27 00:32:17;;;;;;;6.20;4.50;;;10.20;99.90;;;;;;5104039;28;20484;-83
2022/03/27 00:34:43;;;;;;;9.70;5.70;;;10.20;99.90;;;;;;5115339;28;20876;-83
2022/03/27 00:37:12;;;;;;;7.97;5.10;;;10.20;99.90;;;;;;5103065;28;20447;-83
2022/03/27 00:39:39;;;;;;;10.83;5.63;;;10.20;99.90;;;;;;5104742;28;20482;-83
2022/03/27 00:42:06;;;;;;;8.23;5.20;;;10.20;99.90;;;;;;5114245;28;20994;-83
2022/03/27 00:44:34;;;;;;;8.00;5.90;;;10.20;99.90;;;;;;5098307;28;20521;-83
2022/03/27 00:47:01;;;;;;;8.90;5.50;;;10.10;99.90;;;;;;5103879;28;20453;-83
2022/03/27 00:49:28;;;;;;;6.70;5.43;;;10.10;99.90;;;;;;5119532;28;20568;-83
2022/03/27 00:51:55;;;;;;;8.60;5.60;;;10.10;99.90;;;;;;5116723;28;20454;-84
2022/03/27 00:54:23;;;;;;;8.73;5.63;;;10.00;99.90;;;;;;5114886;28;20446;-84
2022/03/27 00:56:50;;;;;;;9.93;5.77;;;10.00;99.90;;;;;;5102597;28;20541;-83
2022/03/27 00:59:17;;;;;;;7.40;5.50;;;10.00;99.90;;;;;;5089632;28;20485;-82
2022/03/27 01:01:44;;;;;;;6.90;5.10;;;10.00;99.90;;;;;;5096382;28;21046;-83
2022/03/27 01:04:12;;;;;;;8.30;5.57;;;10.00;99.90;;;;;;5099120;28;20457;-82
2022/03/27 01:06:41;;;;;;;8.20;5.33;;;10.00;99.90;;;;;;5091782;28;20547;-83
2022/03/27 01:11:56;;;;;;;10.40;6.23;;;10.00;99.90;;;;;;5106654;28;20851;-84
2022/03/27 01:14:31;;;;;;;10.33;6.27;;;10.00;99.90;;;;;;5086806;28;20932;-83
2022/03/27 01:16:59;;;;;;;6.27;5.00;;;9.90;99.90;;;;;;5104959;28;20447;-83
2022/03/27 01:19:28;;;;;;;8.83;5.57;;;9.90;99.90;;;;;;5098054;28;20516;-82
2022/03/27 01:21:57;;;;;;;7.10;5.47;;;9.90;99.90;;;;;;5096977;28;20442;-82
2022/03/27 01:24:24;;;;;;;7.77;5.80;;;9.80;99.90;;;;;;5096438;28;20486;-82
2022/03/27 01:26:51;;;;;;;12.07;6.60;;;9.80;99.90;;;;;;5111706;28;20477;-83
2022/03/27 01:29:18;;;;;;;9.53;6.27;;;9.80;99.90;;;;;;5112835;28;20498;-83
2022/03/27 01:31:47;;;;;;;8.57;5.60;;;9.80;99.90;;;;;;5105273;28;20464;-84
2022/03/27 01:34:14;;;;;;;10.00;6.70;;;9.80;99.90;;;;;;5103115;22;20501;-80
2022/03/27 01:36:41;;;;;;;7.73;6.40;;;9.80;99.90;;;;;;5073247;28;20452;-79
2022/03/27 01:39:11;;;;;;;8.67;7.07;;;9.70;99.90;;;;;;5081561;28;20473;-79
2022/03/27 01:41:38;;;;;;;9.60;7.30;;;9.70;99.90;;;;;;5073044;28;20536;-78
2022/03/27 01:44:06;;;;;;;7.57;6.67;;;9.70;99.90;;;;;;5067506;28;20470;-80
2022/03/27 01:46:33;;;;;;;8.90;6.10;;;9.70;99.90;;;;;;5059269;28;20888;-79
2022/03/27 01:49:02;;;;;;;10.23;7.00;;;9.70;99.90;;;;;;5058506;28;20483;-81
2022/03/27 01:51:30;;;;;;;9.77;7.33;;;9.60;99.90;;;;;;5059448;28;20444;-79
2022/03/27 01:53:57;;;;;;;12.37;8.30;;;9.50;99.90;;;;;;5076022;28;20480;-80
2022/03/27 01:56:25;;;;;;;9.40;7.20;;;9.40;99.90;;;;;;5061072;28;20945;-80
2022/03/27 01:58:53;;;;;;;10.03;8.20;;;9.40;99.90;;;;;;5077246;28;20457;-80
2022/03/27 02:01:20;;;;;;;8.47;7.60;;;9.40;99.90;;;;;;5062425;28;20461;-80
2022/03/27 02:03:47;;;;;;;10.70;7.43;;;9.40;99.90;;;;;;5061674;28;20471;-79
2022/03/27 02:06:15;;;;;;;12.50;8.40;;;9.40;99.90;;;;;;5058319;28;20448;-80
2022/03/27 02:08:42;;;;;;;9.70;7.50;;;9.40;99.90;;;;;;5057107;28;20486;-79
2022/03/27 02:11:10;;;;;;;11.53;9.20;;;9.30;99.90;;;;;;5058279;28;20983;-80
2022/03/27 02:13:38;;;;;;;11.03;8.67;;;9.30;99.90;;;;;;5057483;28;20555;-80
2022/03/27 02:16:05;;;;;;;11.50;8.60;;;9.30;99.90;;;;;;5057821;28;20448;-80
2022/03/27 02:18:33;;;;;;;12.20;9.80;;;9.20;99.90;;;;;;5062359;28;20446;-82
2022/03/27 02:21:01;;;;;;;12.63;10.17;;;9.10;99.90;;;;;;5058991;28;20498;-79
2022/03/27 02:23:29;;;;;;;13.13;10.83;;;9.10;99.90;;;;;;5058324;28;20475;-80
2022/03/27 02:25:56;;;;;;;14.47;11.10;;;9.00;99.90;;;;;;5057732;28;20460;-80
2022/03/27 02:28:24;;;;;;;13.70;10.20;;;9.00;99.90;;;;;;5064262;28;20486;-79
2022/03/27 02:30:52;;;;;;;13.00;10.80;;;8.90;99.90;;;;;;5057415;28;20537;-80
2022/03/27 02:33:19;;;;;;;15.57;10.90;;;8.90;99.90;;;;;;5055505;28;20475;-80
2022/03/27 02:35:46;;;;;;;16.10;11.10;;;8.90;99.90;;;;;;5057842;28;20451;-80
2022/03/27 02:38:13;;;;;;;13.27;10.20;;;8.90;99.90;;;;;;5068022;28;20454;-80
2022/03/27 02:40:41;;;;;;;10.83;9.40;;;8.90;99.90;;;;;;5074511;28;20466;-79
2022/03/27 02:43:10;;;;;;;13.33;10.10;;;8.90;99.90;;;;;;5061199;28;20850;-78
2022/03/27 02:45:38;;;;;;;11.43;10.07;;;8.80;99.90;;;;;;5057565;28;20451;-80
2022/03/27 02:48:07;;;;;;;13.00;10.33;;;8.80;99.90;;;;;;5057431;28;20583;-80
2022/03/27 02:50:36;;;;;;;14.60;10.10;;;8.80;99.90;;;;;;5056840;28;20465;-79
2022/03/27 02:53:04;;;;;;;14.67;9.83;;;8.80;99.90;;;;;;5056591;28;20462;-80
2022/03/27 02:55:31;;;;;;;11.20;9.67;;;8.80;99.90;;;;;;5062249;28;20463;-80
2022/03/27 02:57:59;;;;;;;12.23;10.60;;;8.70;99.90;;;;;;5070565;28;20473;-80
2022/03/27 03:00:26;;;;;;;13.37;10.23;;;8.80;99.90;;;;;;5064594;28;20459;-79
2022/03/27 03:02:53;;;;;;;13.10;11.23;;;8.70;99.90;;;;;;5056908;28;20455;-80
2022/03/27 03:05:22;;;;;;;13.27;11.37;;;8.80;99.90;;;;;;5057412;28;20455;-79
2022/03/27 03:07:50;;;;;;;13.67;10.43;;;8.90;99.90;;;;;;5065805;28;20463;-81
2022/03/27 03:10:18;;;;;;;13.50;11.33;;;8.90;99.90;;;;;;5057172;28;20937;-79
2022/03/27 03:12:45;;;;;;;11.60;9.53;;;9.00;99.90;;;;;;5077748;28;20558;-79
2022/03/27 03:15:13;;;;;;;14.30;12.80;;;9.10;99.90;;;;;;5058765;28;20562;-80
2022/03/27 03:17:40;;;;;;;13.80;12.03;;;9.10;99.90;;;;;;5056952;28;20858;-79
2022/03/27 03:20:08;;;;;;;17.03;12.37;;;9.30;99.90;;;;;;5059149;28;20454;-80
2022/03/27 03:22:40;;;;;;;16.70;14.17;;;9.30;99.90;;;;;;5072450;28;20889;-78
2022/03/27 03:25:08;;;;;;;17.60;14.40;;;9.50;99.90;;;;;;5060974;28;21082;-79
2022/03/27 03:27:35;;;;;;;19.93;16.70;;;9.60;99.90;;;;;;5065078;28;20452;-80
2022/03/27 03:30:01;;;;;;;20.13;17.63;;;9.60;99.90;;;;;;5060112;28;20487;-80
2022/03/27 03:32:28;;;;;;;21.60;18.50;;;9.60;99.90;;;;;;5060582;28;21131;-80
2022/03/27 03:34:55;;;;;;;24.17;18.60;;;9.70;99.90;;;;;;5060355;28;20547;-79
2022/03/27 03:37:23;;;;;;;20.27;17.60;;;9.70;99.90;;;;;;5066962;28;20482;-80
2022/03/27 03:39:51;;;;;;;21.03;17.80;;;9.70;99.90;;;;;;5076089;28;20473;-80
2022/03/27 03:42:18;;;;;;;21.90;17.70;;;9.80;99.90;;;;;;5067030;28;20450;-82
2022/03/27 03:44:45;;;;;;;27.40;20.63;;;9.80;99.90;;;;;;5076290;28;20473;-81
2022/03/27 03:47:12;;;;;;;25.10;18.53;;;9.80;99.90;;;;;;5065960;28;20457;-80
2022/03/27 03:49:39;;;;;;;22.20;18.27;;;9.90;99.90;;;;;;5060885;28;20602;-81
2022/03/27 03:52:07;;;;;;;28.03;21.77;;;9.90;99.90;;;;;;5061698;28;20458;-82
2022/03/27 03:54:34;;;;;;;21.00;17.63;;;9.90;99.90;;;;;;5077856;28;20471;-80
2022/03/27 03:57:03;;;;;;;25.50;18.00;;;9.90;99.90;;;;;;5062767;28;20479;-81
2022/03/27 03:59:33;;;;;;;22.90;19.13;;;9.90;99.90;;;;;;5062734;28;20456;-80
2022/03/27 04:02:00;;;;;;;22.80;18.90;;;10.00;99.90;;;;;;5060471;28;20448;-80
2022/03/27 04:04:28;;;;;;;20.80;18.37;;;10.00;99.90;;;;;;5060385;28;20478;-81
2022/03/27 04:06:55;;;;;;;24.67;18.70;;;10.10;99.90;;;;;;5062359;28;20443;-81
2022/03/27 04:09:22;;;;;;;21.53;17.60;;;10.20;99.90;;;;;;5064460;28;20482;-82
2022/03/27 04:11:49;;;;;;;21.93;19.53;;;10.20;99.90;;;;;;5060230;28;20960;-80
2022/03/27 04:14:17;;;;;;;23.77;20.20;;;10.20;99.90;;;;;;5059125;28;20492;-81
2022/03/27 04:16:44;;;;;;;23.03;17.70;;;10.20;99.90;;;;;;5059929;28;20526;-81
2022/03/27 04:19:12;;;;;;;22.57;18.00;;;10.20;99.90;;;;;;5078226;28;20458;-81
2022/03/27 04:21:39;;;;;;;26.37;19.03;;;10.30;99.90;;;;;;5076764;28;20453;-80
2022/03/27 04:24:07;;;;;;;22.30;19.40;;;10.30;99.90;;;;;;5057924;28;20477;-81
2022/03/27 04:26:34;;;;;;;22.03;19.00;;;10.30;99.90;;;;;;5069579;28;20444;-81
2022/03/27 04:29:02;;;;;;;22.70;19.27;;;10.20;99.90;;;;;;5064048;28;20493;-80
2022/03/27 04:31:31;;;;;;;24.00;19.60;;;10.30;99.90;;;;;;5078553;28;20455;-80
2022/03/27 04:33:58;;;;;;;24.17;19.40;;;10.30;99.90;;;;;;5065355;28;20516;-81
2022/03/27 04:36:25;;;;;;;28.83;20.43;;;10.20;99.90;;;;;;5041511;28;20476;-80
2022/03/27 04:38:52;;;;;;;23.73;19.47;;;10.20;99.90;;;;;;5072600;28;20895;-80
2022/03/27 04:41:19;;;;;;;23.50;20.27;;;10.20;99.90;;;;;;5073432;28;20913;-80
2022/03/27 04:43:48;;;;;;;24.70;20.13;;;10.20;99.90;;;;;;5064290;28;20497;-81
2022/03/27 04:46:14;;;;;;;28.63;20.70;;;10.30;99.90;;;;;;5072925;28;20459;-80
2022/03/27 04:48:43;;;;;;;24.57;21.10;;;10.10;99.90;;;;;;5081406;28;20519;-80
2022/03/27 04:51:11;;;;;;;24.77;20.50;;;10.00;99.90;;;;;;5094225;28;20452;-79
2022/03/27 04:53:37;;;;;;;28.13;20.07;;;10.00;99.90;;;;;;5077046;28;20478;-80
2022/03/27 04:56:05;;;;;;;25.80;21.43;;;10.10;99.90;;;;;;5080203;28;20487;-81
2022/03/27 04:58:31;;;;;;;26.90;23.77;;;10.10;99.90;;;;;;5074274;28;20568;-80
2022/03/27 05:00:58;;;;;;;30.60;23.80;;;9.90;99.90;;;;;;5078919;28;20535;-81
2022/03/27 05:03:25;;;;;;;28.60;22.90;;;9.90;99.90;;;;;;5059422;28;20479;-79
2022/03/27 05:05:53;;;;;;;28.43;22.50;;;9.90;99.90;;;;;;5059695;28;20454;-81
2022/03/27 05:08:20;;;;;;;32.37;23.90;;;9.90;99.90;;;;;;5060881;28;20451;-80
2022/03/27 05:10:47;;;;;;;28.87;23.27;;;9.80;99.90;;;;;;5058794;28;21101;-79
2022/03/27 05:13:14;;;;;;;27.60;23.63;;;9.80;99.90;;;;;;5058054;28;20471;-80
2022/03/27 05:15:42;;;;;;;31.33;24.60;;;9.80;99.90;;;;;;5058218;28;21853;-80
2022/03/27 05:18:09;;;;;;;32.57;23.83;;;9.80;99.90;;;;;;5067001;28;20549;-80
2022/03/27 05:20:40;;;;;;;29.03;23.37;;;9.70;99.90;;;;;;5076590;28;20450;-81
2022/03/27 05:23:08;;;;;;;29.03;23.23;;;9.70;99.90;;;;;;5065654;28;20881;-81
2022/03/27 05:25:40;;;;;;;36.20;25.23;;;9.60;99.90;;;;;;5057401;28;20482;-80
2022/03/27 05:28:09;;;;;;;33.40;24.50;;;9.50;99.90;;;;;;5057823;28;20825;-79
2022/03/27 05:30:36;;;;;;;31.47;25.03;;;9.50;99.90;;;;;;5057814;28;20860;-80
2022/03/27 05:33:04;;;;;;;34.60;27.10;;;9.50;99.90;;;;;;5057083;28;20452;-80
2022/03/27 05:35:31;;;;;;;34.63;23.73;;;9.50;99.90;;;;;;5061121;28;20447;-79
2022/03/27 05:37:59;;;;;;;28.00;24.17;;;9.60;99.90;;;;;;5070722;28;20477;-81
2022/03/27 05:40:28;;;;;;;26.90;22.60;;;9.60;99.90;;;;;;5078339;28;20441;-81
2022/03/27 05:42:55;;;;;;;34.30;24.80;;;9.60;99.90;;;;;;5058095;28;20547;-80
2022/03/27 05:45:23;;;;;;;38.23;25.50;;;9.60;99.90;;;;;;5056695;28;21097;-81
2022/03/27 05:47:51;;;;;;;30.37;23.03;;;9.60;99.90;;;;;;5062113;28;20466;-83
2022/03/27 05:50:22;;;;;;;36.77;25.77;;;9.70;99.90;;;;;;5063277;28;20472;-83
2022/03/27 05:52:50;;;;;;;31.37;23.97;;;9.60;99.90;;;;;;5078134;28;20462;-82
2022/03/27 05:55:17;;;;;;;30.63;23.67;;;9.50;99.90;;;;;;5067010;28;20947;-82
2022/03/27 05:57:46;;;;;;;30.50;23.93;;;9.60;99.90;;;;;;5075825;28;20460;-82
2022/03/27 06:00:16;;;;;;;29.20;24.20;;;9.60;99.90;;;;;;5067440;28;20543;-82
2022/03/27 06:02:43;;;;;;;31.57;24.80;;;9.60;99.90;;;;;;5063998;28;20523;-83
2022/03/27 06:05:10;;;;;;;29.33;22.67;;;9.60;99.90;;;;;;5066427;28;20487;-83
2022/03/27 06:07:47;;;;;;;28.87;23.73;;;9.70;99.90;;;;;;5062904;28;20453;-81
2022/03/27 06:10:16;;;;;;;29.80;23.17;;;9.80;99.90;;;;;;5074861;28;20472;-83
2022/03/27 06:12:45;;;;;;;26.30;21.63;;;9.90;99.90;;;;;;5070606;28;20483;-83
2022/03/27 06:15:14;;;;;;;34.00;25.23;;;9.90;99.90;;;;;;5054415;28;20838;-83
2022/03/27 06:17:42;;;;;;;32.77;23.93;;;9.80;99.90;;;;;;5056232;28;20459;-82
2022/03/27 06:20:12;;;;;;;28.97;21.97;;;9.70;99.90;;;;;;5059270;28;20562;-82
2022/03/27 06:22:39;;;;;;;28.47;23.30;;;9.70;99.90;;;;;;5054247;28;20455;-83
2022/03/27 06:25:07;;;;;;;28.30;22.83;;;9.80;99.90;;;;;;5054760;28;20479;-82
2022/03/27 06:27:34;;;;;;;26.27;22.30;;;9.80;99.90;;;;;;5068098;28;20459;-82
2022/03/27 06:30:02;;;;;;;26.33;21.40;;;9.80;99.90;;;;;;5076876;28;20497;-84
2022/03/27 06:32:29;;;;;;;27.50;21.47;;;9.80;99.90;;;;;;5051582;28;20523;-84
2022/03/27 06:34:57;;;;;;;24.03;21.20;;;9.90;99.90;;;;;;5050997;28;20478;-84
2022/03/27 06:37:24;;;;;;;24.80;20.27;;;10.00;99.90;;;;;;5056432;28;20498;-83
2022/03/27 06:39:51;;;;;;;26.00;21.60;;;10.10;99.90;;;;;;5051683;28;20449;-82
2022/03/27 06:42:18;;;;;;;24.77;21.20;;;10.00;99.90;;;;;;5048529;28;20451;-82
2022/03/27 06:44:45;;;;;;;26.47;21.40;;;10.00;99.90;;;;;;5053692;28;20829;-84
2022/03/27 06:47:13;;;;;;;25.50;22.17;;;10.10;99.90;;;;;;5055330;28;20463;-83
2022/03/27 06:49:41;;;;;;;29.20;20.97;;;10.00;99.90;;;;;;5052467;28;20487;-82
2022/03/27 06:52:08;;;;;;;24.73;21.87;;;10.20;99.90;;;;;;5056184;28;20506;-83
2022/03/27 06:54:35;;;;;;;25.30;19.73;;;10.10;99.90;;;;;;5052346;28;20498;-84
2022/03/27 06:57:02;;;;;;;28.13;21.13;;;10.20;99.90;;;;;;5056479;28;20455;-83
2022/03/27 07:03:01;;;;;;;27.63;22.03;;;10.20;99.90;;;;;;5055815;28;20459;-81
2022/03/27 07:05:01;;;;;;;25.40;21.23;;;10.10;99.90;;;;;;5051638;28;20467;-83
2022/03/27 07:07:28;;;;;;;27.10;20.70;;;10.00;99.90;;;;;;5061529;28;20801;-82
2022/03/27 07:09:58;;;;;;;26.73;22.33;;;10.10;99.90;;;;;;5054337;28;20891;-80
2022/03/27 07:12:27;;;;;;;30.70;22.33;;;10.10;99.90;;;;;;5055499;28;20459;-83
2022/03/27 07:14:54;;;;;;;26.40;21.40;;;10.20;99.90;;;;;;5054305;28;20478;-82
2022/03/27 07:17:22;;;;;;;28.47;22.57;;;10.20;99.90;;;;;;5056876;28;20964;-82
2022/03/27 07:19:49;;;;;;;32.20;23.23;;;10.00;99.90;;;;;;5060473;28;20459;-83
2022/03/27 07:22:16;;;;;;;25.07;20.80;;;10.20;99.90;;;;;;5059011;28;20533;-83
2022/03/27 07:24:43;;;;;;;23.97;19.67;;;10.20;99.90;;;;;;5056250;28;20472;-83
2022/03/27 07:27:10;;;;;;;24.20;20.73;;;10.30;99.90;;;;;;5058304;28;20537;-84
2022/03/27 07:29:37;;;;;;;25.53;19.83;;;10.40;99.90;;;;;;5062140;28;20455;-84
2022/03/27 07:32:05;;;;;;;25.57;19.10;;;10.60;99.90;;;;;;5059675;28;20530;-84
2022/03/27 07:34:34;;;;;;;27.27;20.67;;;10.80;99.90;;;;;;5058022;28;20476;-83
2022/03/27 07:37:01;;;;;;;32.13;23.23;;;11.00;99.90;;;;;;5073456;28;20451;-84
2022/03/27 07:39:28;;;;;;;28.67;21.63;;;11.10;99.90;;;;;;5064484;28;20948;-84
2022/03/27 07:41:55;;;;;;;29.93;21.70;;;11.30;99.90;;;;;;5068441;28;20466;-84
2022/03/27 07:44:21;;;;;;;29.93;21.50;;;11.40;99.90;;;;;;5113072;22;20495;-84
2022/03/27 07:46:49;;;;;;;30.70;23.00;;;11.70;99.90;;;;;;5071027;28;20487;-86
2022/03/27 07:49:17;;;;;;;35.30;23.40;;;11.80;99.90;;;;;;5066652;28;20504;-85
2022/03/27 07:51:46;;;;;;;36.37;25.20;;;12.00;99.90;;;;;;5065210;28;20567;-84
2022/03/27 07:54:13;;;;;;;34.40;24.57;;;12.20;99.90;;;;;;5065496;28;20491;-83
2022/03/27 07:56:40;;;;;;;41.67;27.17;;;12.40;99.90;;;;;;5062468;28;20513;-83
2022/03/27 07:59:15;;;;;;;41.13;27.20;;;12.40;99.90;;;;;;5046105;28;20481;-83
2022/03/27 08:01:52;;;;;;;42.10;25.90;;;12.40;99.90;;;;;;5024704;28;20426;-83
2022/03/27 08:04:34;;;;;;;43.37;28.43;;;12.50;99.90;;;;;;5019075;28;20487;-84
2022/03/27 08:07:25;;;;;;;42.00;27.43;;;12.60;99.90;;;;;;5019166;28;20469;-83
2022/03/27 08:10:01;;;;;;;38.50;27.03;;;12.80;99.90;;;;;;5019235;28;20486;-84
2022/03/27 08:12:50;;;;;;;44.17;28.80;;;12.90;99.90;;;;;;5019066;28;20960;-84
2022/03/27 08:15:36;;;;;;;45.80;30.50;;;13.10;99.90;;;;;;5020008;28;20509;-84
2022/03/27 08:21:34;;;;;;;51.23;30.77;;;13.40;99.90;;;;;;5008085;28;20491;-84
2022/03/27 08:25:01;;;;;;;42.10;28.20;;;13.40;99.90;;;;;;5024836;28;20489;-83
2022/03/27 08:27:43;;;;;;;43.57;28.90;;;13.40;99.90;;;;;;5020883;28;20465;-83
2022/03/27 08:40:02;;;;;;;45.20;28.97;;;13.80;99.90;;;;;;4988506;28;20454;-82
2022/03/27 08:46:22;;;;;;;46.10;29.10;;;13.40;99.90;;;;;;5029362;28;21045;-83
2022/03/27 08:49:30;;;;;;;46.83;29.87;;;13.80;99.90;;;;;;5041793;28;20459;-84
2022/03/27 09:02:22;;;;;;;36.43;26.10;;;13.90;99.90;;;;;;5045855;28;20419;-85
2022/03/27 09:04:54;;;;;;;38.30;26.37;;;14.10;99.90;;;;;;5046846;28;20494;-83
2022/03/27 09:10:49;;;;;;;41.00;27.50;;;13.80;99.90;;;;;;5027976;28;20457;-83
2022/03/27 09:14:03;;;;;;;41.50;27.00;;;13.50;99.90;;;;;;5033566;28;20462;-82
2022/03/27 09:16:55;;;;;;;35.63;24.83;;;13.70;99.90;;;;;;5026228;28;20470;-83
2022/03/27 09:19:39;;;;;;;39.20;27.43;;;14.00;99.90;;;;;;5028052;28;20460;-84
2022/03/27 09:25:08;;;;;;;40.00;26.00;;;14.00;99.90;;;;;;5027056;28;20917;-85
2022/03/27 09:27:40;;;;;;;36.20;24.33;;;14.20;99.90;;;;;;5029100;28;20525;-84
2022/03/27 09:30:34;;;;;;;33.97;24.60;;;14.70;99.90;;;;;;5030831;28;20458;-82
2022/03/27 09:33:09;;;;;;;37.03;24.10;;;15.20;99.90;;;;;;5040138;28;20459;-84
2022/03/27 09:35:51;;;;;;;29.23;21.80;;;15.60;99.90;;;;;;5038976;28;20472;-82
2022/03/27 09:44:03;;;;;;;26.03;19.13;;;15.80;99.90;;;;;;5033586;28;20483;-84
2022/03/27 09:47:02;;;;;;;25.57;19.27;;;15.80;99.90;;;;;;5055530;28;20461;-84
2022/03/27 09:49:46;;;;;;;25.47;20.30;;;15.30;99.90;;;;;;5066432;28;20456;-84
2022/03/27 09:55:28;;;;;;;19.73;16.43;;;15.50;99.90;;;;;;5025022;28;20470;-81
2022/03/27 09:58:07;;;;;;;22.47;18.00;;;15.70;99.90;;;;;;5026734;28;20448;-83
2022/03/27 10:00:42;;;;;;;23.83;17.80;;;16.00;99.90;;;;;;5042321;28;20456;-84
2022/03/27 10:03:12;;;;;;;19.10;15.93;;;16.10;99.90;;;;;;5033893;28;20456;-82
2022/03/27 10:06:00;;;;;;;20.20;16.97;;;16.30;99.90;;;;;;5037591;28;20499;-82
2022/03/27 10:08:39;;;;;;;19.87;17.23;;;17.00;99.90;;;;;;5050730;28;20892;-82
2022/03/27 10:17:18;;;;;;;17.07;14.70;;;21.90;99.90;;;;;;5034063;28;20449;-83
2022/03/27 10:26:17;;;;;;;18.43;16.53;;;23.70;99.90;;;;;;5042459;28;21111;-84
2022/03/27 10:28:53;;;;;;;20.93;18.57;;;24.90;99.90;;;;;;5039366;28;20458;-84
2022/03/27 10:37:38;;;;;;;20.17;18.07;;;26.90;92.60;;;;;;5049577;28;20545;-84
2022/03/27 10:40:16;;;;;;;20.50;18.43;;;26.70;91.70;;;;;;5037902;28;20449;-84
2022/03/27 10:43:18;;;;;;;21.87;19.67;;;27.60;90.00;;;;;;5046560;28;20457;-84
2022/03/27 10:53:21;;;;;;;20.97;18.97;;;28.00;86.80;;;;;;5027164;28;20476;-84
2022/03/27 11:02:06;;;;;;;20.30;14.47;;;29.20;75.20;;;;;;5030642;28;20480;-84
2022/03/27 11:04:41;;;;;;;14.50;12.10;;;29.40;76.20;;;;;;5043525;28;20475;-84
2022/03/27 11:10:41;;;;;;;14.43;12.93;;;31.90;72.80;;;;;;5030190;28;20524;-85
2022/03/27 11:13:59;;;;;;;12.33;11.03;;;31.60;64.20;;;;;;5015561;28;20425;-85
2022/03/27 11:16:29;;;;;;;10.93;9.57;;;29.80;63.80;;;;;;5029533;28;20468;-85
2022/03/27 11:18:58;;;;;;;12.53;11.20;;;31.30;64.00;;;;;;5016150;28;20686;-85
2022/03/27 11:21:50;;;;;;;13.30;12.00;;;30.10;61.30;;;;;;5026982;28;20485;-85
2022/03/27 11:24:27;;;;;;;11.23;10.07;;;30.40;64.90;;;;;;5032190;28;20529;-84
2022/03/27 11:26:54;;;;;;;13.47;12.07;;;29.90;65.50;;;;;;5029719;28;20444;-84
2022/03/27 11:29:27;;;;;;;13.37;12.07;;;29.90;62.20;;;;;;5033254;28;20484;-84
2022/03/27 11:32:09;;;;;;;13.10;10.97;;;29.10;59.80;;;;;;5032019;28;20476;-85
2022/03/27 11:34:37;;;;;;;12.00;10.03;;;28.80;61.50;;;;;;5022359;28;20501;-84
2022/03/27 11:37:21;;;;;;;11.03;9.90;;;29.00;61.80;;;;;;5037951;28;20480;-84
2022/03/27 11:39:49;;;;;;;10.60;9.60;;;30.10;64.60;;;;;;5040236;28;20454;-84
2022/03/27 11:42:28;;;;;;;11.43;10.23;;;29.60;59.50;;;;;;5034113;28;20492;-85
2022/03/27 11:45:17;;;;;;;9.53;8.57;;;29.90;59.80;;;;;;5029581;28;20476;-85
2022/03/27 11:47:48;;;;;;;10.20;9.10;;;31.40;59.80;;;;;;5039646;28;20449;-85
2022/03/27 11:50:25;;;;;;;10.87;9.40;;;32.50;59.60;;;;;;5029243;28;20442;-85
2022/03/27 11:52:52;;;;;;;11.00;10.00;;;32.70;59.10;;;;;;5028601;28;20449;-84
2022/03/27 11:55:19;;;;;;;9.83;8.90;;;31.90;56.60;;;;;;5026307;28;20479;-85
2022/03/27 11:57:48;;;;;;;8.90;8.00;;;32.50;57.40;;;;;;5034830;28;20461;-84
2022/03/27 12:00:16;;;;;;;7.50;6.70;;;32.40;54.90;;;;;;5042099;28;20452;-84
2022/03/27 12:02:46;;;;;;;9.97;9.07;;;32.20;55.10;;;;;;5027412;28;20573;-84
2022/03/27 12:05:14;;;;;;;9.70;8.80;;;30.70;56.20;;;;;;5021909;28;20523;-85
2022/03/27 12:07:56;;;;;;;9.57;8.57;;;28.50;55.70;;;;;;5029324;28;20455;-84
2022/03/27 12:10:24;;;;;;;9.83;8.33;;;30.10;58.10;;;;;;5024755;28;20453;-85
2022/03/27 12:12:59;;;;;;;8.87;8.03;;;31.20;56.00;;;;;;5030213;28;20559;-84
2022/03/27 12:15:49;;;;;;;10.23;8.77;;;31.10;55.30;;;;;;5026615;28;20554;-85
2022/03/27 12:18:28;;;;;;;8.10;7.30;;;31.50;56.10;;;;;;5024141;28;20453;-86
2022/03/27 12:20:55;;;;;;;10.07;9.07;;;33.10;56.40;;;;;;5018116;28;20454;-85
2022/03/27 12:23:27;;;;;;;9.10;8.17;;;33.60;53.60;;;;;;5024329;28;20548;-86
2022/03/27 12:26:02;;;;;;;76.80;21.63;;;33.50;54.10;;;;;;5027331;28;20480;-85
2022/03/27 12:31:24;;;;;;;12.50;11.30;;;35.40;54.40;;;;;;5019784;28;20440;-85
2022/03/27 12:33:55;;;;;;;13.10;12.00;;;35.30;52.20;;;;;;5022346;28;20460;-85
2022/03/27 12:36:22;;;;;;;11.70;10.70;;;34.70;52.80;;;;;;5001389;28;20423;-85
2022/03/27 12:38:49;;;;;;;11.63;10.43;;;35.40;52.20;;;;;;5019522;28;20454;-85
2022/03/27 12:41:38;;;;;;;11.47;10.47;;;34.90;49.90;;;;;;5021361;28;20549;-85
2022/03/27 12:44:06;;;;;;;10.50;9.50;;;34.30;49.30;;;;;;5022012;28;20990;-84
2022/03/27 12:46:32;;;;;;;8.80;8.10;;;35.10;48.70;;;;;;5022723;28;20458;-86
2022/03/27 12:49:03;;;;;;;7.53;6.93;;;34.90;49.50;;;;;;5021739;28;20830;-85
2022/03/27 12:51:31;;;;;;;8.60;7.90;;;34.10;50.10;;;;;;5021920;28;20464;-85
2022/03/27 12:54:02;;;;;;;7.03;6.43;;;33.30;49.20;;;;;;5023750;28;20525;-85
2022/03/27 12:56:30;;;;;;;8.37;7.67;;;33.50;49.00;;;;;;5004982;28;20449;-85
2022/03/27 12:58:57;;;;;;;8.90;8.03;;;33.80;48.60;;;;;;5022796;28;20465;-85
2022/03/27 13:01:25;;;;;;;7.33;6.50;;;34.80;50.30;;;;;;5026270;28;20489;-84
2022/03/27 13:04:07;;;;;;;7.70;7.00;;;35.10;48.00;;;;;;5024669;28;20449;-85
2022/03/27 13:06:35;;;;;;;20.07;17.97;;;33.90;48.30;;;;;;5019191;28;20464;-85
2022/03/27 13:09:03;;;;;;;6.10;5.60;;;34.20;48.30;;;;;;5026160;28;20512;-85
2022/03/27 13:11:30;;;;;;;8.63;7.87;;;35.40;48.50;;;;;;5025425;28;20877;-85
2022/03/27 13:14:02;;;;;;;6.17;5.67;;;34.30;47.70;;;;;;5025453;28;20476;-85
2022/03/27 13:16:30;;;;;;;8.20;7.50;;;34.40;47.20;;;;;;5015869;28;20489;-85
2022/03/27 13:19:00;;;;;;;6.77;6.17;;;34.60;47.90;;;;;;5024993;28;20453;-86
2022/03/27 13:21:29;;;;;;;6.60;6.00;;;35.10;48.30;;;;;;5020790;28;21024;-85
2022/03/27 13:23:55;;;;;;;5.20;4.70;;;35.10;46.40;;;;;;5014819;28;20539;-86
2022/03/27 13:26:22;;;;;;;7.10;6.50;;;36.20;46.30;;;;;;5016469;28;21201;-87
2022/03/27 13:28:49;;;;;;;6.70;6.00;;;35.60;45.20;;;;;;5014653;28;20467;-86
2022/03/27 13:31:16;;;;;;;7.00;6.30;;;36.60;46.00;;;;;;5011496;28;20450;-85
2022/03/27 13:33:43;;;;;;;7.37;6.77;;;34.90;47.10;;;;;;5013879;28;20457;-86
2022/03/27 13:36:10;;;;;;;7.20;6.60;;;35.90;47.60;;;;;;5009615;28;21033;-86
2022/03/27 13:38:38;;;;;;;6.37;5.77;;;35.20;45.80;;;;;;5015248;28;20466;-85
2022/03/27 13:43:49;;;;;;;7.50;6.77;;;34.60;46.10;;;;;;5022088;28;20490;-85
2022/03/27 13:46:17;;;;;;;6.40;5.90;;;34.80;45.40;;;;;;5023362;28;20483;-85
2022/03/27 13:48:43;;;;;;;5.80;5.30;;;35.10;46.10;;;;;;5017922;28;20530;-87
2022/03/27 13:51:10;;;;;;;6.40;5.80;;;34.90;46.00;;;;;;5021351;28;20457;-84
2022/03/27 13:53:38;;;;;;;7.20;6.63;;;35.70;47.30;;;;;;5021793;28;20454;-86
2022/03/27 13:56:06;;;;;;;12.80;5.80;;;35.30;46.60;;;;;;5062419;22;20486;-82
2022/03/27 13:58:33;;;;;;;6.97;6.30;;;36.20;44.70;;;;;;5063919;28;20462;-82
2022/03/27 14:01:00;;;;;;;6.77;6.17;;;33.10;44.00;;;;;;5072300;28;20451;-82
2022/03/27 14:03:28;;;;;;;5.37;4.63;;;33.50;46.40;;;;;;5071036;28;20493;-82
2022/03/27 14:05:57;;;;;;;5.27;4.77;;;34.20;45.20;;;;;;5073672;28;20479;-84
2022/03/27 14:08:24;;;;;;;6.50;5.90;;;34.90;44.30;;;;;;5076979;28;20664;-83
2022/03/27 14:10:52;;;;;;;4.83;4.37;;;34.20;43.20;;;;;;5072792;28;20466;-84
2022/03/27 14:13:19;;;;;;;5.80;5.20;;;34.90;44.70;;;;;;5064917;28;21247;-84
2022/03/27 14:15:46;;;;;;;5.30;4.80;;;35.30;44.70;;;;;;5073047;28;20562;-84
2022/03/27 14:18:14;;;;;;;5.20;4.43;;;35.20;44.90;;;;;;5077621;28;20447;-84
2022/03/27 14:20:41;;;;;;;6.07;5.43;;;35.50;44.60;;;;;;5062411;28;20986;-84
2022/03/27 14:23:08;;;;;;;5.87;5.10;;;34.00;44.20;;;;;;5067589;28;20468;-82